createdAt,value
2022-09-20T00:04:16.019Z,87.07
2022-09-20T00:09:17.677Z,87.03
2022-09-20T00:14:19.334Z,86.83
2022-09-20T00:19:22.028Z,86.96
2022-09-20T00:24:23.686Z,87.08
2022-09-20T00:29:25.600Z,86.96
2022-09-20T00:34:45.741Z,86.89
2022-09-20T00:39:47.694Z,87.17
2022-09-20T00:45:07.342Z,87.56
2022-09-20T00:50:28.662Z,87.48
2022-09-20T00:55:31.079Z,87.58
2022-09-20T01:00:33.112Z,87.36
2022-09-20T01:05:36.461Z,86.79
2022-09-20T01:10:38.941Z,86.67
2022-09-20T01:15:44.509Z,86.56
2022-09-20T01:20:48.340Z,86.16
2022-09-20T01:26:27.278Z,86.27
2022-09-20T01:31:33.900Z,86.05
2022-09-20T01:36:54.317Z,85.86
2022-09-20T01:41:59.951Z,85.82
2022-09-20T01:47:11.074Z,85.95
2022-09-20T01:52:43.801Z,85.94
2022-09-20T01:58:04.161Z,85.54
2022-09-20T02:03:08.615Z,85.30
2022-09-20T02:08:33.489Z,85.94
2022-09-20T02:13:40.953Z,85.85
2022-09-20T02:19:15.962Z,86.00
2022-09-20T02:24:36.433Z,86.27
2022-09-20T02:29:53.257Z,86.35
2022-09-20T02:35:19.501Z,86.11
2022-09-20T02:40:51.382Z,86.19
2022-09-20T02:46:02.933Z,86.28
2022-09-20T02:51:35.560Z,86.72
2022-09-20T02:56:55.533Z,87.18
2022-09-20T03:02:18.313Z,87.53
2022-09-20T03:07:22.657Z,87.80
2022-09-20T03:12:49.631Z,88.01
2022-09-20T03:18:06.383Z,88.31
2022-09-20T03:23:43.918Z,88.14
2022-09-20T03:28:57.933Z,88.00
2022-09-20T03:34:30.481Z,87.91
2022-09-20T03:39:32.079Z,87.97
2022-09-20T03:44:51.339Z,87.74
2022-09-20T03:50:17.433Z,87.31
2022-09-20T03:55:54.210Z,87.29
2022-09-20T04:01:08.051Z,87.11
2022-09-20T04:06:40.758Z,87.04
2022-09-20T04:12:19.975Z,87.18
2022-09-20T04:17:42.900Z,87.12
2022-09-20T04:22:46.214Z,87.22
2022-09-20T04:27:55.042Z,87.09
2022-09-20T04:33:14.994Z,87.02
2022-09-20T04:38:19.403Z,86.82
2022-09-20T04:43:36.194Z,86.96
2022-09-20T04:48:52.372Z,87.32
2022-09-20T04:54:18.704Z,87.36
2022-09-20T04:59:54.794Z,87.27
2022-09-20T05:05:18.302Z,87.57
2022-09-20T05:10:25.862Z,87.89
2022-09-20T05:15:39.395Z,87.46
2022-09-20T05:20:49.695Z,87.31
2022-09-20T05:26:08.078Z,87.31
2022-09-20T05:31:38.094Z,87.27
2022-09-20T05:36:51.909Z,87.81
2022-09-20T05:42:24.622Z,87.63
2022-09-20T05:47:49.906Z,87.84
2022-09-20T05:53:19.799Z,88.37
2022-09-20T05:58:49.633Z,88.62
2022-09-20T06:04:00.693Z,88.66
2022-09-20T06:09:29.957Z,88.53
2022-09-20T06:14:39.340Z,88.67
2022-09-20T06:20:10.420Z,89.05
2022-09-20T06:25:57.259Z,89.12
2022-09-20T06:30:59.028Z,89.60
2022-09-20T06:36:28.368Z,89.36
2022-09-20T06:41:34.662Z,90.02
2022-09-20T06:46:41.589Z,89.69
2022-09-20T06:51:43.432Z,89.86
2022-09-20T06:56:46.823Z,89.65
2022-09-20T07:01:48.616Z,89.89
2022-09-20T07:06:51.062Z,89.69
2022-09-20T07:11:52.716Z,89.54
2022-09-20T07:16:54.731Z,88.97
2022-09-20T07:21:56.809Z,89.50
2022-09-20T07:27:01.386Z,89.27
2022-09-20T07:32:03.722Z,89.24
2022-09-20T07:37:05.551Z,88.68
2022-09-20T07:42:07.411Z,88.17
2022-09-20T07:47:11.106Z,87.85
2022-09-20T07:52:14.657Z,87.00
2022-09-20T07:57:16.898Z,87.55
2022-09-20T08:02:18.848Z,87.62
2022-09-20T08:07:21.074Z,87.00
2022-09-20T08:17:47.330Z,86.32
2022-09-20T08:23:06.238Z,86.32
2022-09-20T08:28:10.988Z,83.96
2022-09-20T08:33:12.887Z,83.63
2022-09-20T08:43:45.492Z,81.45
2022-09-20T08:48:47.462Z,80.70
2022-09-20T08:53:54.246Z,81.55
2022-09-20T08:58:58.437Z,80.22
2022-09-20T09:04:23.490Z,81.55
2022-09-20T09:09:27.490Z,82.43
2022-09-20T09:14:51.030Z,78.46
2022-09-20T09:19:58.440Z,77.13
2022-09-20T09:25:34.580Z,78.42
2022-09-20T09:30:39.282Z,75.49
2022-09-20T09:35:42.182Z,75.27
2022-09-20T09:40:52.168Z,75.92
2022-09-20T09:45:55.509Z,75.51
2022-09-20T09:51:15.653Z,76.13
2022-09-20T09:56:38.953Z,73.84
2022-09-20T10:01:52.081Z,73.23
2022-09-20T10:07:06.263Z,72.06
2022-09-20T10:12:32.391Z,70.74
2022-09-20T10:17:45.170Z,68.69
2022-09-20T10:23:39.253Z,67.60
2022-09-20T10:28:57.463Z,68.14
2022-09-20T10:34:08.219Z,66.25
2022-09-20T10:39:26.963Z,68.42
2022-09-20T10:45:00.176Z,65.96
2022-09-20T10:50:17.034Z,64.30
2022-09-20T10:55:39.186Z,65.49
2022-09-20T11:00:52.709Z,63.38
2022-09-20T11:06:06.498Z,62.99
2022-09-20T11:11:20.322Z,63.59
2022-09-20T11:16:29.279Z,59.70
2022-09-20T11:21:47.076Z,59.71
2022-09-20T11:26:56.986Z,60.13
2022-09-20T11:32:28.458Z,61.69
2022-09-20T11:37:33.865Z,61.52
2022-09-20T11:42:38.466Z,61.52
2022-09-20T11:47:55.234Z,63.37
2022-09-20T11:53:26.433Z,60.15
2022-09-20T11:58:28.466Z,62.80
2022-09-20T12:03:40.076Z,65.79
2022-09-20T12:08:42.132Z,66.46
2022-09-20T12:13:55.434Z,68.78
2022-09-20T12:19:03.850Z,69.03
2022-09-20T12:24:29.853Z,66.82
2022-09-20T12:29:32.557Z,65.96
2022-09-20T12:34:36.991Z,67.21
2022-09-20T12:39:39.997Z,69.08
2022-09-20T12:44:45.661Z,69.61
2022-09-20T12:50:06.007Z,70.53
2022-09-20T12:55:11.300Z,68.63
2022-09-20T13:00:41.881Z,68.21
2022-09-20T13:05:47.036Z,67.62
2022-09-20T13:11:07.089Z,69.26
2022-09-20T13:16:38.506Z,68.43
2022-09-20T13:21:47.337Z,67.39
2022-09-20T13:26:52.001Z,66.90
2022-09-20T13:31:56.385Z,66.86
2022-09-20T13:36:59.078Z,66.56
2022-09-20T13:42:06.915Z,66.93
2022-09-20T13:47:23.198Z,66.55
2022-09-20T13:52:30.929Z,70.27
2022-09-20T13:57:32.625Z,71.42
2022-09-20T14:02:34.358Z,72.53
2022-09-20T14:07:36.791Z,73.44
2022-09-20T14:12:38.787Z,74.20
2022-09-20T14:17:40.496Z,74.76
2022-09-20T14:22:43.880Z,76.18
2022-09-20T14:27:45.881Z,76.42
2022-09-20T14:32:54.348Z,76.70
2022-09-20T14:38:08.616Z,76.79
2022-09-20T14:43:25.568Z,76.86
2022-09-20T14:48:32.808Z,76.05
2022-09-20T14:53:37.132Z,77.30
2022-09-20T14:59:16.619Z,76.13
2022-09-20T15:04:23.541Z,74.24
2022-09-20T15:09:25.266Z,74.89
2022-09-20T15:14:26.978Z,74.41
2022-09-20T15:19:30.425Z,73.54
2022-09-20T15:24:32.077Z,72.07
2022-09-20T15:29:33.886Z,72.55
2022-09-20T15:34:35.635Z,73.55
2022-09-20T15:39:37.245Z,72.56
2022-09-20T15:44:38.913Z,71.81
2022-09-20T15:49:42.402Z,72.98
2022-09-20T15:54:44.082Z,75.92
2022-09-20T15:59:45.855Z,77.25
2022-09-20T16:04:47.923Z,77.43
2022-09-20T16:09:49.877Z,74.23
2022-09-20T16:14:51.453Z,73.58
2022-09-20T16:19:53.122Z,74.09
2022-09-20T16:24:55.660Z,72.72
2022-09-20T16:29:57.368Z,72.53
2022-09-20T16:35:01.138Z,73.03
2022-09-20T16:40:03.985Z,73.48
2022-09-20T16:45:06.954Z,75.21
2022-09-20T16:50:09.903Z,77.02
2022-09-20T16:55:13.037Z,77.54
2022-09-20T17:00:16.795Z,76.01
2022-09-20T17:05:18.432Z,76.31
2022-09-20T17:10:24.247Z,77.74
2022-09-20T17:15:25.890Z,78.98
2022-09-20T17:20:28.641Z,79.11
2022-09-20T17:25:30.349Z,78.30
2022-09-20T17:30:32.604Z,76.99
2022-09-20T17:35:34.231Z,75.75
2022-09-20T17:40:35.889Z,76.13
2022-09-20T17:45:37.593Z,76.38
2022-09-20T17:50:39.287Z,77.04
2022-09-20T17:55:40.971Z,78.52
2022-09-20T18:00:42.657Z,80.22
2022-09-20T18:05:44.421Z,80.57
2022-09-20T18:10:58.830Z,81.82
2022-09-20T18:16:00.511Z,82.39
2022-09-20T18:21:12.996Z,82.86
2022-09-20T18:26:23.224Z,83.47
2022-09-20T18:31:28.383Z,84.77
2022-09-20T18:36:31.949Z,85.12
2022-09-20T18:41:38.428Z,85.61
2022-09-20T18:46:40.746Z,86.37
2022-09-20T18:51:43.650Z,87.86
2022-09-20T18:56:47.433Z,86.17
2022-09-20T19:01:55.556Z,85.38
2022-09-20T19:07:24.443Z,84.95
2022-09-20T19:12:39.226Z,84.70
2022-09-20T19:18:04.013Z,84.75
2022-09-20T19:23:34.704Z,84.58
2022-09-20T19:28:36.763Z,84.73
2022-09-20T19:33:40.138Z,84.00
2022-09-20T19:39:07.747Z,83.46
2022-09-20T19:44:54.121Z,83.64
2022-09-20T19:50:33.118Z,84.46
2022-09-20T19:55:35.382Z,84.55
2022-09-20T20:00:37.744Z,84.95
2022-09-20T20:05:50.466Z,83.83
2022-09-20T20:11:13.926Z,84.25
2022-09-20T20:16:30.346Z,83.99
2022-09-20T20:21:58.491Z,83.71
2022-09-20T20:27:00.173Z,83.44
2022-09-20T20:32:02.269Z,83.57
2022-09-20T20:37:04.717Z,83.81
2022-09-20T20:42:06.607Z,84.01
2022-09-20T20:47:08.344Z,83.58
2022-09-20T20:52:10.014Z,84.11
2022-09-20T20:57:11.890Z,84.56
2022-09-20T21:02:13.686Z,84.20
2022-09-20T21:07:16.515Z,84.10
2022-09-20T21:12:18.620Z,84.48
2022-09-20T21:17:20.364Z,83.71
2022-09-20T21:22:22.214Z,84.03
2022-09-20T21:27:23.922Z,83.98
2022-09-20T21:32:25.667Z,85.05
2022-09-20T21:37:27.513Z,84.24
2022-09-20T21:42:29.475Z,84.29
2022-09-20T21:47:31.662Z,84.58
2022-09-20T21:52:33.263Z,84.51
2022-09-20T21:57:35.034Z,84.31
2022-09-20T22:02:36.718Z,84.34
2022-09-20T22:07:38.367Z,83.90
2022-09-20T22:12:40.015Z,83.96
2022-09-20T22:17:41.789Z,83.77
2022-09-20T22:22:43.357Z,83.73
2022-09-20T22:27:45.011Z,84.06
2022-09-20T22:32:46.661Z,83.75
2022-09-20T22:37:48.304Z,84.11
2022-09-20T22:42:49.989Z,83.89
2022-09-20T22:47:51.763Z,83.82
2022-09-20T22:52:53.454Z,82.89
2022-09-20T22:57:55.086Z,83.61
2022-09-20T23:02:59.579Z,83.48
2022-09-20T23:08:01.450Z,83.84
2022-09-20T23:13:03.004Z,83.43
2022-09-20T23:18:05.167Z,83.43
2022-09-20T23:23:06.897Z,83.69
2022-09-20T23:28:08.507Z,83.87
2022-09-20T23:33:10.396Z,82.65
2022-09-20T23:38:14.371Z,82.26
2022-09-20T23:43:16.142Z,81.73
2022-09-20T23:48:17.865Z,82.18
2022-09-20T23:53:19.682Z,82.43
2022-09-20T23:58:21.333Z,82.22
